Time;durP1;ratioP1;P1;durP2;ratioP2;P2;SDS_P1;SDS_P2;PMS_P1;PMS_P2;Temp;Humidity;BMP_temperature;BMP_pressure;BME280_temperature;BME280_humidity;BME280_pressure;Samples;Min_cycle;Max_cycle;Signal;HPM_P1;HPM_P2
2022/12/03 00:01:19;;;;;;;76.45;28.15;;;;;;;1.33;100.00;100651.94;5073774;28;20028;-73
2022/12/03 00:03:45;;;;;;;72.35;27.17;;;;;;;1.35;100.00;100649.81;5040761;28;20054;-73
2022/12/03 00:06:10;;;;;;;68.72;26.20;;;;;;;1.38;100.00;100646.59;5047210;28;20058;-73
2022/12/03 00:08:36;;;;;;;75.50;27.55;;;;;;;1.38;100.00;100646.59;5044321;28;20035;-73
2022/12/03 00:11:01;;;;;;;73.32;26.77;;;;;;;1.39;100.00;100651.00;5079902;28;20024;-73
2022/12/03 00:13:27;;;;;;;72.43;26.92;;;;;;;1.41;100.00;100646.16;5060003;28;20029;-73
2022/12/03 00:15:52;;;;;;;72.53;26.77;;;;;;;1.41;100.00;100643.41;5029994;28;20031;-73
2022/12/03 00:18:18;;;;;;;72.30;27.17;;;;;;;1.42;100.00;100631.41;5041118;28;20409;-73
2022/12/03 00:20:43;;;;;;;66.75;26.60;;;;;;;1.47;100.00;100627.97;5056597;28;20028;-73
2022/12/03 00:23:09;;;;;;;76.85;27.48;;;;;;;1.47;100.00;100633.44;5041234;28;20440;-73
2022/12/03 00:25:34;;;;;;;77.50;28.20;;;;;;;1.49;100.00;100626.66;5060371;28;20043;-73
2022/12/03 00:28:00;;;;;;;76.03;26.88;;;;;;;1.50;100.00;100628.31;5057686;28;20032;-73
2022/12/03 00:30:25;;;;;;;75.90;29.45;;;;;;;1.49;100.00;100626.66;5056302;28;20044;-73
2022/12/03 00:32:51;;;;;;;74.68;27.77;;;;;;;1.52;100.00;100634.41;5068207;28;20035;-73
2022/12/03 00:35:16;;;;;;;73.30;26.75;;;;;;;1.55;100.00;100636.69;5057107;28;20086;-73
2022/12/03 00:37:42;;;;;;;76.53;27.27;;;;;;;1.53;100.00;100622.41;5071176;28;20472;-73
2022/12/03 00:40:08;;;;;;;81.50;29.05;;;;;;;1.54;100.00;100621.34;5027484;28;20361;-73
2022/12/03 00:42:33;;;;;;;83.07;28.50;;;;;;;1.57;100.00;100611.84;5041088;28;20032;-73
2022/12/03 00:44:59;;;;;;;76.72;27.02;;;;;;;1.55;100.00;100620.25;5037416;28;20436;-73
2022/12/03 00:47:24;;;;;;;73.85;27.60;;;;;;;1.60;100.00;100624.22;5059252;28;20434;-73
2022/12/03 00:49:50;;;;;;;73.68;27.17;;;;;;;1.59;100.00;100619.78;5059306;28;20530;-73
2022/12/03 00:52:15;;;;;;;79.85;28.48;;;;;;;1.56;100.00;100621.09;5057523;28;20028;-73
2022/12/03 00:54:41;;;;;;;74.15;27.40;;;;;;;1.55;100.00;100624.91;5057773;28;20495;-73
2022/12/03 00:57:06;;;;;;;77.90;27.70;;;;;;;1.53;100.00;100630.63;5060809;28;20034;-73
2022/12/03 00:59:32;;;;;;;80.47;29.05;;;;;;;1.52;100.00;100630.84;5043431;28;20032;-73
2022/12/03 01:01:58;;;;;;;75.63;28.88;;;;;;;1.52;100.00;100625.38;5060643;28;20032;-73
2022/12/03 01:04:23;;;;;;;75.63;29.13;;;;;;;1.54;100.00;100617.78;5043610;28;20082;-73
2022/12/03 01:06:49;;;;;;;75.78;26.60;;;;;;;1.50;100.00;100620.13;5060449;28;20036;-73
2022/12/03 01:09:14;;;;;;;79.03;28.35;;;;;;;1.50;100.00;100617.38;5043577;28;20031;-73
2022/12/03 01:11:40;;;;;;;85.43;28.65;;;;;;;1.50;100.00;100617.38;5056719;28;20032;-73
2022/12/03 01:14:07;;;;;;;80.82;27.00;;;;;;;1.55;100.00;100617.53;5039568;28;20032;-73
2022/12/03 01:16:33;;;;;;;75.32;25.65;;;;;;;1.52;100.00;100619.91;5067929;28;20467;-73
2022/12/03 01:18:58;;;;;;;69.75;25.83;;;;;;;1.53;100.00;100625.16;5029443;28;20114;-73
2022/12/03 01:21:24;;;;;;;78.65;26.42;;;;;;;1.54;100.00;100625.97;5060523;28;20028;-73
2022/12/03 01:23:49;;;;;;;76.43;25.95;;;;;;;1.54;100.00;100632.28;5025333;28;20012;-73
2022/12/03 01:26:15;;;;;;;73.60;27.50;;;;;;;1.52;100.00;100630.84;5044074;28;20468;-73
2022/12/03 01:28:41;;;;;;;74.07;26.15;;;;;;;1.53;100.00;100625.16;5025466;28;20080;-73
2022/12/03 01:33:51;;;;;;;74.82;26.52;;;;;;;1.53;100.00;100629.78;5078542;28;20028;-73
2022/12/03 01:36:17;;;;;;;71.55;26.13;;;;;;;1.53;100.00;100622.41;5041118;28;20043;-73
2022/12/03 01:38:42;;;;;;;73.20;25.80;;;;;;;1.52;100.00;100623.47;5037318;28;20384;-73
2022/12/03 01:41:08;;;;;;;75.47;26.92;;;;;;;1.51;100.00;100624.53;5058522;28;20047;-73
2022/12/03 01:43:33;;;;;;;63.58;23.88;;;;;;;1.56;100.00;100621.09;5072995;28;20031;-73
2022/12/03 01:45:59;;;;;;;69.78;25.13;;;;;;;1.55;100.00;100628.47;5051409;28;20508;-73
2022/12/03 01:48:25;;;;;;;67.32;25.20;;;;;;;1.55;100.00;100633.94;5046876;28;20032;-73
2022/12/03 01:50:50;;;;;;;72.07;25.02;;;;;;;1.52;100.00;100639.06;5064053;28;20123;-73
2022/12/03 01:53:17;;;;;;;70.13;23.83;;;;;;;1.56;100.00;100632.91;5094000;28;20089;-73
2022/12/03 01:55:43;;;;;;;64.22;23.65;;;;;;;1.55;100.00;100633.94;5044196;28;20028;-73
2022/12/03 01:58:10;;;;;;;59.95;21.83;;;;;;;1.57;100.00;100639.19;5027629;28;20035;-73
2022/12/03 02:00:36;;;;;;;64.60;23.10;;;;;;;1.54;100.00;100635.03;5057356;28;20058;-73
2022/12/03 02:03:06;;;;;;;55.80;21.95;;;;;;;1.55;100.00;100642.16;5063471;28;20024;-73
2022/12/03 02:05:32;;;;;;;52.65;21.08;;;;;;;1.58;100.00;100640.88;5073953;28;20024;-73
2022/12/03 02:07:58;;;;;;;53.22;21.08;;;;;;;1.55;100.00;100646.81;5080538;28;20107;-73
2022/12/03 02:10:31;;;;;;;51.17;19.30;;;;;;;1.58;100.00;100635.38;5044510;28;20033;-72
2022/12/03 02:13:02;;;;;;;50.17;19.73;;;;;;;1.58;100.00;100649.06;5060180;28;20089;-73
2022/12/03 02:15:28;;;;;;;49.67;20.88;;;;;;;1.60;100.00;100629.69;5030094;28;20028;-73
2022/12/03 02:17:53;;;;;;;45.97;19.27;;;;;;;1.64;100.00;100628.16;5043490;28;20028;-73
2022/12/03 02:20:19;;;;;;;49.13;18.67;;;;;;;1.63;100.00;100634.72;5043243;28;20028;-73
2022/12/03 02:23:00;;;;;;;50.05;19.58;;;;;;;1.60;100.00;100627.78;5060187;28;20021;-73
2022/12/03 02:25:30;;;;;;;49.00;19.60;;;;;;;1.62;100.00;100625.66;5075311;28;20495;-73
2022/12/03 02:27:56;;;;;;;48.05;20.05;;;;;;;1.60;100.00;100616.84;5060358;28;20111;-73
2022/12/03 02:30:23;;;;;;;47.80;20.52;;;;;;;1.62;100.00;100614.72;5049437;28;20032;-73
2022/12/03 02:32:49;;;;;;;51.80;20.63;;;;;;;1.63;100.00;100613.63;5042928;28;20036;-73
2022/12/03 02:35:16;;;;;;;50.60;20.60;;;;;;;1.63;100.00;100610.06;5059116;28;20059;-73
2022/12/03 02:37:42;;;;;;;51.55;19.63;;;;;;;1.65;100.00;100605.19;5052904;28;20107;-73
2022/12/03 02:40:09;;;;;;;45.90;19.33;;;;;;;1.64;100.00;100607.06;5045984;28;20031;-73
2022/12/03 02:42:35;;;;;;;47.70;19.15;;;;;;;1.63;100.00;100607.31;5048716;28;20081;-73
2022/12/03 02:45:04;;;;;;;46.00;20.35;;;;;;;1.63;100.00;100608.16;5042586;28;20033;-73
2022/12/03 02:47:30;;;;;;;52.72;19.50;;;;;;;1.67;100.00;100612.13;5049252;28;20039;-73
2022/12/03 02:49:56;;;;;;;52.90;20.35;;;;;;;1.63;100.00;100602.69;5083403;28;20713;-73
2022/12/03 02:52:22;;;;;;;46.75;19.67;;;;;;;1.65;100.00;100603.28;5063626;28;20056;-73
2022/12/03 02:54:47;;;;;;;48.45;19.65;;;;;;;1.65;100.00;100605.19;5027528;28;20032;-73
2022/12/03 02:57:13;;;;;;;50.75;20.60;;;;;;;1.64;100.00;100609.00;5057321;28;20028;-73
2022/12/03 02:59:39;;;;;;;45.05;19.98;;;;;;;1.66;100.00;100599.47;5065647;28;20036;-73
2022/12/03 03:02:04;;;;;;;45.05;18.33;;;;;;;1.63;100.00;100601.84;5046501;28;20028;-73
2022/12/03 03:04:30;;;;;;;49.05;18.23;;;;;;;1.65;100.00;100597.00;5077183;28;20054;-73
2022/12/03 03:06:55;;;;;;;46.72;19.02;;;;;;;1.65;100.00;100605.19;5050385;28;20396;-73
2022/12/03 03:09:21;;;;;;;49.13;19.52;;;;;;;1.66;100.00;100593.16;5055836;28;20032;-73
2022/12/03 03:11:47;;;;;;;48.10;19.52;;;;;;;1.65;100.00;100591.50;5050330;28;20039;-73
2022/12/03 03:14:12;;;;;;;43.50;19.17;;;;;;;1.65;100.00;100597.00;5042652;28;20048;-73
2022/12/03 03:16:38;;;;;;;45.72;18.52;;;;;;;1.65;100.00;100591.50;5037080;28;20020;-73
2022/12/03 03:19:03;;;;;;;46.65;19.55;;;;;;;1.64;100.00;100589.81;5060335;28;20064;-73
2022/12/03 03:21:29;;;;;;;46.75;18.85;;;;;;;1.68;100.00;100596.53;5059059;28;20435;-73
2022/12/03 03:23:54;;;;;;;47.35;18.92;;;;;;;1.67;100.00;100589.34;5060472;28;20021;-73
2022/12/03 03:26:20;;;;;;;47.75;19.05;;;;;;;1.68;100.00;100599.25;5058662;28;20028;-73
2022/12/03 03:28:48;;;;;;;45.42;18.17;;;;;;;1.68;100.00;100591.03;5040045;28;20016;-73
2022/12/03 03:31:14;;;;;;;48.70;19.65;;;;;;;1.69;100.00;100592.69;5042491;28;20036;-73
2022/12/03 03:33:40;;;;;;;45.45;18.73;;;;;;;1.72;100.00;100592.22;5050093;28;20039;-73
2022/12/03 03:36:06;;;;;;;43.78;17.50;;;;;;;1.73;100.00;100591.19;5033404;28;20083;-73
2022/12/03 03:38:31;;;;;;;48.50;19.85;;;;;;;1.71;100.00;100590.56;5059310;28;20068;-73
2022/12/03 03:40:57;;;;;;;46.15;18.73;;;;;;;1.71;100.00;100590.56;5025442;28;20054;-73
2022/12/03 03:43:23;;;;;;;47.13;18.30;;;;;;;1.74;100.00;100592.84;5055411;28;20024;-73
2022/12/03 03:45:49;;;;;;;41.42;17.77;;;;;;;1.74;100.00;100595.56;5069525;28;20024;-73
2022/12/03 03:48:14;;;;;;;49.75;20.30;;;;;;;1.73;100.00;100588.44;5061742;28;20032;-73
2022/12/03 03:50:40;;;;;;;50.55;19.65;;;;;;;1.74;100.00;100582.72;5041741;28;20025;-73
2022/12/03 03:53:05;;;;;;;51.00;20.90;;;;;;;1.77;100.00;100581.41;5055739;28;20112;-73
2022/12/03 03:55:31;;;;;;;52.67;19.75;;;;;;;1.76;100.00;100571.53;5033119;28;20055;-73
2022/12/03 03:57:56;;;;;;;50.25;19.33;;;;;;;1.77;100.00;100581.41;5059223;28;20032;-73
2022/12/03 04:00:22;;;;;;;50.60;20.40;;;;;;;1.78;100.00;100570.25;5057735;28;20032;-73
2022/12/03 04:02:47;;;;;;;50.70;20.63;;;;;;;1.75;100.00;100567.94;5093470;28;20032;-73
2022/12/03 04:05:19;;;;;;;48.92;20.73;;;;;;;1.75;100.00;100567.94;5058033;28;20039;-73
2022/12/03 04:07:45;;;;;;;54.00;20.58;;;;;;;1.79;100.00;100565.59;5073379;28;20125;-73
2022/12/03 04:12:55;;;;;;;50.83;20.65;;;;;;;1.79;100.00;100566.41;5068732;28;20549;-73
2022/12/03 04:15:21;;;;;;;51.05;19.02;;;;;;;1.82;100.00;100564.28;5024425;28;20029;-73
2022/12/03 04:18:41;;;;;;;50.35;20.33;;;;;;;1.79;100.00;100560.13;5046058;28;20086;-73
2022/12/03 04:20:32;;;;;;;51.35;20.25;;;;;;;1.83;100.00;100560.47;5063625;28;20055;-73
2022/12/03 04:22:57;;;;;;;53.85;21.65;;;;;;;1.78;100.00;100558.44;5024793;28;20500;-73
2022/12/03 04:30:51;;;;;;;57.63;21.45;;;;;;;1.82;100.00;100556.06;5066322;28;20397;-73
2022/12/03 04:36:01;;;;;;;50.42;21.13;;;;;;;1.82;100.00;100537.72;5060945;28;20597;-73
2022/12/03 04:38:27;;;;;;;52.53;20.23;;;;;;;1.82;100.00;100543.22;5044625;28;20114;-73
2022/12/03 04:41:05;;;;;;;55.90;21.40;;;;;;;1.84;100.00;100546.56;5040666;28;20075;-73
2022/12/03 04:43:33;;;;;;;56.65;21.88;;;;;;;1.87;100.00;100542.50;5071313;28;20063;-73
2022/12/03 04:45:59;;;;;;;52.13;21.17;;;;;;;1.83;100.00;100539.38;5050521;28;20035;-73
2022/12/03 04:48:25;;;;;;;55.10;21.67;;;;;;;1.85;100.00;100534.53;5024303;28;20028;-73
2022/12/03 04:50:50;;;;;;;56.33;21.48;;;;;;;1.86;100.00;100533.44;5036947;28;20067;-73
2022/12/03 04:53:15;;;;;;;57.35;21.17;;;;;;;1.86;100.00;100538.91;5072402;28;20221;-73
2022/12/03 04:55:41;;;;;;;54.25;22.10;;;;;;;1.85;100.00;100537.25;5053908;28;20032;-73
2022/12/03 04:58:06;;;;;;;53.90;21.20;;;;;;;1.84;100.00;100532.88;5043309;28;20032;-73
2022/12/03 05:00:32;;;;;;;55.33;21.80;;;;;;;1.88;100.00;100531.31;5073562;28;20028;-73
2022/12/03 05:02:57;;;;;;;56.00;21.73;;;;;;;1.88;100.00;100525.00;5056929;28;20033;-73
2022/12/03 05:05:23;;;;;;;65.60;23.55;;;;;;;1.91;100.00;100524.53;5067009;28;20381;-73
2022/12/03 05:07:48;;;;;;;59.58;22.30;;;;;;;1.91;100.00;100519.88;5073610;28;20035;-73
2022/12/03 05:10:14;;;;;;;55.90;21.88;;;;;;;1.90;100.00;100522.88;5057183;28;20024;-73
2022/12/03 05:12:39;;;;;;;59.85;22.85;;;;;;;1.88;100.00;100522.25;5060373;28;20035;-73
2022/12/03 05:15:05;;;;;;;57.72;22.27;;;;;;;1.91;100.00;100524.53;5060438;28;20089;-72
2022/12/03 05:17:30;;;;;;;56.33;20.95;;;;;;;1.90;100.00;100517.38;5043973;28;20484;-73
2022/12/03 05:20:41;;;;;;;54.10;22.20;;;;;;;1.88;100.00;100525.00;5060338;28;20082;-73
2022/12/03 05:22:42;;;;;;;57.55;22.17;;;;;;;1.87;100.00;100517.88;5069484;28;20059;-72
2022/12/03 05:25:08;;;;;;;55.95;20.08;;;;;;;1.87;100.00;100524.19;5044648;28;20036;-72
2022/12/03 05:27:33;;;;;;;52.40;20.00;;;;;;;1.89;100.00;100522.00;5087310;28;20472;-72
2022/12/03 05:29:59;;;;;;;58.17;21.00;;;;;;;1.84;100.00;100519.16;5050538;28;20024;-73
2022/12/03 05:32:25;;;;;;;55.53;21.15;;;;;;;1.87;100.00;100523.34;5063883;28;20032;-72
2022/12/03 05:34:50;;;;;;;52.42;20.25;;;;;;;1.89;100.00;100526.66;5043888;28;20276;-73
2022/12/03 05:37:15;;;;;;;57.15;21.50;;;;;;;1.83;100.00;100516.66;5079615;28;20032;-73
2022/12/03 05:39:41;;;;;;;52.33;22.13;;;;;;;1.85;100.00;100518.09;5064227;28;20090;-72
2022/12/03 05:44:52;;;;;;;54.15;21.40;;;;;;;1.89;100.00;100515.72;5080068;28;20169;-72
2022/12/03 05:47:17;;;;;;;60.50;22.25;;;;;;;1.86;100.00;100516.19;5068075;28;20028;-72
2022/12/03 05:49:43;;;;;;;60.90;23.38;;;;;;;1.84;100.00;100515.56;5067502;28;20032;-72
2022/12/03 05:52:08;;;;;;;62.25;23.40;;;;;;;1.85;100.00;100507.13;5047955;28;20032;-72
2022/12/03 05:54:34;;;;;;;58.22;21.27;;;;;;;1.86;100.00;100514.28;5064142;28;20032;-72
2022/12/03 05:56:59;;;;;;;61.25;22.63;;;;;;;1.88;100.00;100514.88;5081065;28;20036;-72
2022/12/03 05:59:25;;;;;;;59.15;22.77;;;;;;;1.86;100.00;100511.53;5077857;28;20085;-72
2022/12/03 06:01:50;;;;;;;56.88;20.88;;;;;;;1.85;100.00;100501.66;5037605;28;20032;-72
2022/12/03 06:04:15;;;;;;;66.28;25.70;;;;;;;1.86;100.00;100506.06;5081093;28;20369;-72
2022/12/03 06:06:41;;;;;;;68.05;25.58;;;;;;;1.86;100.00;100507.97;5049518;28;20021;-73
2022/12/03 06:09:06;;;;;;;70.97;26.23;;;;;;;1.85;100.00;100503.56;5040678;28;20036;-73
2022/12/03 06:11:36;;;;;;;64.68;22.85;;;;;;;1.88;100.00;100497.63;5037899;28;20021;-73
2022/12/03 06:14:01;;;;;;;70.85;26.42;;;;;;;1.86;100.00;100500.56;5051727;28;20027;-73
2022/12/03 06:16:27;;;;;;;68.35;26.75;;;;;;;1.88;100.00;100498.44;5061098;28;20040;-73
2022/12/03 06:18:52;;;;;;;76.55;27.42;;;;;;;1.92;100.00;100504.28;5048363;28;20024;-72
2022/12/03 06:21:18;;;;;;;86.80;29.35;;;;;;;1.82;100.00;100493.09;5080178;28;20028;-72
2022/12/03 06:23:43;;;;;;;79.18;28.45;;;;;;;1.85;100.00;100498.91;5046254;28;20081;-73
2022/12/03 06:26:12;;;;;;;78.65;29.27;;;;;;;1.79;100.00;100500.69;5043447;28;20055;-72
2022/12/03 06:28:38;;;;;;;85.55;28.17;;;;;;;1.85;100.00;100504.41;5015527;28;20035;-73
2022/12/03 06:31:04;;;;;;;77.95;28.13;;;;;;;1.81;100.00;100508.66;5069504;28;20028;-73
2022/12/03 06:33:29;;;;;;;71.65;28.48;;;;;;;1.78;100.00;100503.66;5060659;28;20036;-73
2022/12/03 06:35:54;;;;;;;70.18;27.33;;;;;;;1.78;100.00;100495.44;5043275;28;20041;-72
2022/12/03 06:38:21;;;;;;;75.25;27.20;;;;;;;1.75;100.00;100495.94;5044853;28;20036;-72
2022/12/03 06:40:46;;;;;;;67.10;24.30;;;;;;;1.72;100.00;100494.50;5063308;28;20024;-73
2022/12/03 06:43:12;;;;;;;63.50;25.67;;;;;;;1.73;100.00;100498.09;5045605;28;20038;-73
2022/12/03 06:45:37;;;;;;;64.45;23.75;;;;;;;1.76;100.00;100497.63;5042831;28;20028;-73
2022/12/03 06:48:03;;;;;;;57.45;23.23;;;;;;;1.74;100.00;100491.53;5059064;28;20035;-73
2022/12/03 06:50:28;;;;;;;55.85;24.98;;;;;;;1.75;100.00;100488.53;5062689;28;20036;-73
2022/12/03 06:52:54;;;;;;;55.08;23.17;;;;;;;1.73;100.00;100490.69;5077655;28;20031;-72
2022/12/03 06:55:19;;;;;;;59.13;24.90;;;;;;;1.72;100.00;100489.00;5052148;28;20029;-73
2022/12/03 06:57:45;;;;;;;53.28;23.65;;;;;;;1.73;100.00;100489.88;5062502;28;20031;-73
2022/12/03 07:00:11;;;;;;;57.08;22.55;;;;;;;1.75;100.00;100488.53;5065373;28;20024;-73
2022/12/03 07:02:36;;;;;;;54.85;23.13;;;;;;;1.73;100.00;100490.69;5079370;28;20121;-73
2022/12/03 07:05:02;;;;;;;56.28;23.38;;;;;;;1.74;100.00;100495.09;5096494;28;20028;-73
2022/12/03 07:07:27;;;;;;;58.67;23.02;;;;;;;1.72;100.00;100486.28;5062561;28;20036;-73
2022/12/03 07:09:53;;;;;;;56.65;22.58;;;;;;;1.73;100.00;100485.22;5062389;28;20020;-73
2022/12/03 07:12:18;;;;;;;58.92;24.25;;;;;;;1.73;100.00;100484.41;5045966;28;20036;-73
2022/12/03 07:14:44;;;;;;;60.92;25.23;;;;;;;1.72;100.00;100488.19;5079279;28;20039;-73
2022/12/03 07:17:09;;;;;;;58.08;23.40;;;;;;;1.72;100.00;100488.19;5029324;28;20405;-73
2022/12/03 07:19:35;;;;;;;62.47;24.67;;;;;;;1.71;100.00;100492.00;5062463;28;20032;-73
2022/12/03 07:22:01;;;;;;;64.63;27.20;;;;;;;1.70;100.00;100491.19;5062308;28;20047;-73
2022/12/03 07:24:26;;;;;;;69.15;27.45;;;;;;;1.70;100.00;100487.56;5040878;28;20448;-72
2022/12/03 07:26:52;;;;;;;67.38;26.23;;;;;;;1.69;100.00;100488.66;5044888;28;20036;-73
2022/12/03 07:29:17;;;;;;;63.03;26.27;;;;;;;1.72;100.00;100496.41;5045346;28;20039;-73
2022/12/03 07:31:43;;;;;;;67.68;25.77;;;;;;;1.67;100.00;100497.13;5065273;28;20039;-73
2022/12/03 07:34:08;;;;;;;70.78;28.20;;;;;;;1.65;100.00;100498.44;5054870;28;20036;-73
2022/12/03 07:36:34;;;;;;;71.55;28.23;;;;;;;1.68;100.00;100500.69;5034243;28;20370;-73
2022/12/03 07:38:59;;;;;;;75.95;29.20;;;;;;;1.68;100.00;100498.78;5058430;28;20393;-73
2022/12/03 07:41:25;;;;;;;76.18;29.45;;;;;;;1.67;100.00;100504.47;5023360;28;20025;-73
2022/12/03 07:43:50;;;;;;;74.00;28.45;;;;;;;1.63;100.00;100495.09;5038286;28;20484;-73
2022/12/03 07:46:16;;;;;;;72.35;29.92;;;;;;;1.63;100.00;100493.19;5036523;28;20127;-73
2022/12/03 07:48:41;;;;;;;71.13;28.17;;;;;;;1.62;100.00;100504.38;5069754;28;20060;-73
2022/12/03 07:51:07;;;;;;;67.05;27.65;;;;;;;1.65;100.00;100492.94;5056855;28;20037;-73
2022/12/03 07:53:34;;;;;;;69.80;27.02;;;;;;;1.62;100.00;100494.25;5069147;28;20052;-73
2022/12/03 07:56:00;;;;;;;74.07;28.73;;;;;;;1.63;100.00;100495.09;5056941;28;20083;-73
2022/12/03 07:58:26;;;;;;;71.20;28.77;;;;;;;1.62;100.00;100491.50;5024899;28;20025;-72
2022/12/03 08:00:51;;;;;;;73.63;29.58;;;;;;;1.61;100.00;100492.56;5041320;28;20366;-73
2022/12/03 08:03:17;;;;;;;68.93;27.58;;;;;;;1.58;100.00;100493.03;5041427;28;20055;-73
2022/12/03 08:05:42;;;;;;;67.70;28.60;;;;;;;1.55;100.00;100485.31;5034629;28;20037;-73
2022/12/03 08:08:08;;;;;;;66.28;26.15;;;;;;;1.56;100.00;100482.34;5052359;28;20032;-73
2022/12/03 08:10:33;;;;;;;69.45;28.45;;;;;;;1.53;100.00;100484.69;5054185;28;20024;-73
2022/12/03 08:12:59;;;;;;;67.85;28.10;;;;;;;1.52;100.00;100489.34;5024761;28;20032;-73
2022/12/03 08:15:26;;;;;;;73.82;29.02;;;;;;;1.54;100.00;100484.47;5039699;28;20028;-73
2022/12/03 08:17:59;;;;;;;72.82;28.73;;;;;;;1.50;100.00;100479.69;5058239;28;20060;-73
2022/12/03 08:20:29;;;;;;;69.70;28.38;;;;;;;1.51;100.00;100479.47;5034898;28;20021;-73
2022/12/03 08:22:54;;;;;;;67.65;26.98;;;;;;;1.55;100.00;100488.88;5041182;28;20068;-73
2022/12/03 08:25:21;;;;;;;69.63;27.85;;;;;;;1.56;100.00;100487.81;5025527;28;20028;-73
2022/12/03 08:27:46;;;;;;;68.10;28.30;;;;;;;1.55;100.00;100480.66;5065607;28;20155;-73
2022/12/03 08:30:13;;;;;;;63.60;26.00;;;;;;;1.56;100.00;100476.88;5015556;28;20025;-73
2022/12/03 08:32:39;;;;;;;70.05;28.58;;;;;;;1.60;100.00;100474.47;5037517;28;20036;-73
2022/12/03 08:35:24;;;;;;;65.05;26.95;;;;;;;1.59;100.00;100472.84;5055900;28;20056;-73
2022/12/03 08:38:10;;;;;;;67.50;26.02;;;;;;;1.59;100.00;100478.31;5030599;28;20111;-73
2022/12/03 08:40:39;;;;;;;66.13;26.77;;;;;;;1.64;100.00;100475.66;5041019;28;20031;-73
2022/12/03 08:43:11;;;;;;;69.00;26.65;;;;;;;1.61;100.00;100478.06;5049502;28;20112;-73
2022/12/03 08:45:40;;;;;;;70.80;27.20;;;;;;;1.62;100.00;100477.00;5044723;28;20118;-73
2022/12/03 08:48:15;;;;;;;72.65;30.23;;;;;;;1.65;100.00;100480.09;5029752;28;20323;-73
2022/12/03 08:50:41;;;;;;;75.68;27.70;;;;;;;1.67;100.00;100482.56;5053608;28;20035;-73
2022/12/03 08:53:12;;;;;;;72.30;30.05;;;;;;;1.68;100.00;100478.78;5044770;28;20036;-73
2022/12/03 08:55:50;;;;;;;67.07;26.60;;;;;;;1.70;100.00;100473.88;5070334;28;20527;-73
2022/12/03 08:58:31;;;;;;;71.57;27.48;;;;;;;1.69;100.00;100481.28;5036933;28;20033;-73
2022/12/03 09:01:02;;;;;;;65.95;27.17;;;;;;;1.69;100.00;100480.44;5079558;28;20032;-73
2022/12/03 09:03:29;;;;;;;74.22;29.13;;;;;;;1.65;100.00;100482.00;5031388;28;20068;-73
2022/12/03 09:05:54;;;;;;;68.95;28.63;;;;;;;1.66;100.00;100480.91;5040602;28;20028;-73
2022/12/03 09:08:19;;;;;;;70.95;27.95;;;;;;;1.68;100.00;100482.34;5057396;28;20036;-73
2022/12/03 09:10:45;;;;;;;70.72;28.88;;;;;;;1.65;100.00;100479.25;5023984;28;20036;-72
2022/12/03 09:13:10;;;;;;;67.68;26.80;;;;;;;1.65;100.00;100479.25;5053590;28;20025;-73
2022/12/03 09:15:36;;;;;;;69.13;28.00;;;;;;;1.62;100.00;100485.22;5053780;28;20485;-74
2022/12/03 09:18:02;;;;;;;68.70;25.90;;;;;;;1.61;100.00;100470.66;5033852;28;20050;-73
2022/12/03 09:20:27;;;;;;;66.50;28.02;;;;;;;1.64;100.00;100470.19;5040605;28;20033;-73
2022/12/03 09:22:52;;;;;;;65.90;27.27;;;;;;;1.65;100.00;100471.06;5047315;28;20031;-73
2022/12/03 09:25:18;;;;;;;68.55;28.83;;;;;;;1.68;100.00;100470.56;5028227;28;20021;-73
2022/12/03 09:27:43;;;;;;;68.05;27.35;;;;;;;1.68;100.00;100476.88;5064174;28;20028;-73
2022/12/03 09:30:09;;;;;;;70.50;29.25;;;;;;;1.69;100.00;100474.97;5031790;28;20033;-73
2022/12/03 09:32:35;;;;;;;70.55;28.65;;;;;;;1.69;100.00;100478.53;5040502;28;20048;-73
2022/12/03 09:35:01;;;;;;;66.05;27.17;;;;;;;1.72;100.00;100482.72;5022326;28;20128;-74
2022/12/03 09:37:26;;;;;;;67.65;26.83;;;;;;;1.76;100.00;100490.22;5020803;28;20020;-73
2022/12/03 09:39:51;;;;;;;72.35;28.90;;;;;;;1.73;100.00;100484.41;5023777;28;20025;-73
2022/12/03 09:42:17;;;;;;;68.70;26.45;;;;;;;1.75;100.00;100483.06;5048467;28;20033;-74
2022/12/03 09:44:43;;;;;;;70.95;28.88;;;;;;;1.76;100.00;100492.97;5035424;28;20036;-74
2022/12/03 09:47:08;;;;;;;71.05;28.73;;;;;;;1.76;100.00;100492.13;5051311;28;20060;-73
2022/12/03 09:49:35;;;;;;;70.15;29.75;;;;;;;1.78;100.00;100488.09;5019223;28;20361;-74
2022/12/03 09:52:01;;;;;;;72.57;29.45;;;;;;;1.81;100.00;100486.75;5074690;28;20028;-74
2022/12/03 09:54:27;;;;;;;69.38;27.92;;;;;;;1.85;100.00;100495.34;5062193;28;20029;-73
2022/12/03 09:56:53;;;;;;;69.72;28.27;;;;;;;1.79;100.00;100489.75;5037012;28;20104;-74
2022/12/03 09:59:19;;;;;;;70.97;29.40;;;;;;;1.75;100.00;100480.31;5018854;28;20036;-74
2022/12/03 10:01:44;;;;;;;71.50;29.02;;;;;;;1.77;100.00;100486.41;5056970;28;20029;-74
2022/12/03 10:04:10;;;;;;;77.90;30.02;;;;;;;1.78;100.00;100484.50;5074572;28;20029;-74
2022/12/03 10:06:35;;;;;;;72.45;30.13;;;;;;;1.76;100.00;100489.41;5053741;28;20393;-74
2022/12/03 10:09:01;;;;;;;74.72;29.27;;;;;;;1.78;100.00;100476.28;5035261;28;20056;-71
2022/12/03 10:11:26;;;;;;;81.57;30.48;;;;;;;1.79;100.00;100467.84;5016931;28;20407;-75
2022/12/03 10:13:52;;;;;;;71.82;30.15;;;;;;;1.78;100.00;100460.72;5059889;28;20048;-72
2022/12/03 10:16:19;;;;;;;81.68;31.55;;;;;;;1.86;100.00;100461.41;5010790;28;20028;-77
2022/12/03 10:18:50;;;;;;;72.85;28.58;;;;;;;1.83;100.00;100456.41;5043411;28;20056;-73
2022/12/03 10:21:18;;;;;;;72.05;29.42;;;;;;;1.86;100.00;100456.75;5078003;28;20537;-73
2022/12/03 10:23:45;;;;;;;72.00;28.30;;;;;;;1.89;100.00;100461.75;5044665;28;20049;-73
2022/12/03 10:26:11;;;;;;;72.30;29.08;;;;;;;1.91;100.00;100467.00;5056630;28;20722;-73
2022/12/03 10:28:41;;;;;;;71.60;27.00;;;;;;;1.95;100.00;100462.72;5073175;28;20043;-72
2022/12/03 10:31:09;;;;;;;71.60;28.52;;;;;;;1.96;100.00;100458.91;5066363;28;20024;-73
2022/12/03 10:33:39;;;;;;;72.03;29.20;;;;;;;2.00;100.00;100452.69;5022980;28;20029;-72
2022/12/03 10:36:24;;;;;;;69.88;28.02;;;;;;;1.98;100.00;100443.91;5028050;28;20527;-84
2022/12/03 10:39:13;;;;;;;69.93;28.55;;;;;;;2.01;100.00;100448.91;5041178;28;20025;-72
2022/12/03 10:41:40;;;;;;;62.13;25.95;;;;;;;2.07;100.00;100446.28;5056155;28;20400;-72
2022/12/03 10:44:17;;;;;;;56.42;26.17;;;;;;;2.11;100.00;100450.22;5022844;28;20113;-72
2022/12/03 10:46:43;;;;;;;61.75;26.10;;;;;;;2.11;100.00;100447.47;5032923;28;20060;-72
2022/12/03 10:49:16;;;;;;;63.60;26.15;;;;;;;2.14;100.00;100449.72;5051466;28;20025;-72
2022/12/03 10:51:41;;;;;;;;;;;;;;;2.15;100.00;100441.28;5058949;28;20040;-72
2022/12/03 10:54:13;;;;;;;59.88;24.50;;;;;;;2.17;100.00;100441.03;5039907;28;19913;-72
2022/12/03 10:56:38;;;;;;;55.53;25.15;;;;;;;2.20;100.00;100440.53;5023364;28;20033;-72
2022/12/03 10:59:04;;;;;;;51.25;23.73;;;;;;;2.24;100.00;100431.59;5019189;28;20028;-72
2022/12/03 11:01:30;;;;;;;55.95;25.25;;;;;;;2.24;100.00;100428.03;5058944;28;20389;-72
2022/12/03 11:03:55;;;;;;;58.20;26.38;;;;;;;2.23;100.00;100434.59;5022779;28;20017;-72
2022/12/03 11:06:21;;;;;;;52.03;23.45;;;;;;;2.28;100.00;100429.22;5039367;28;20029;-72
2022/12/03 11:08:51;;;;;;;58.22;25.92;;;;;;;2.26;100.00;100420.41;5016393;28;20104;-71
2022/12/03 11:11:18;;;;;;;48.80;23.75;;;;;;;2.29;100.00;100421.84;5041222;28;20029;-72
2022/12/03 11:13:45;;;;;;;54.95;24.27;;;;;;;2.29;100.00;100414.44;5050635;28;20028;-72
2022/12/03 11:16:11;;;;;;;54.05;24.45;;;;;;;2.29;100.00;100417.19;5055551;28;20045;-72
2022/12/03 11:18:56;;;;;;;55.45;23.95;;;;;;;2.28;100.00;100411.94;5033984;28;20039;-72
2022/12/03 11:21:22;;;;;;;52.60;23.05;;;;;;;2.29;100.00;100403.50;5054832;28;20051;-73
2022/12/03 11:23:50;;;;;;;53.63;24.05;;;;;;;2.32;100.00;100405.75;5056185;28;20373;-73